Tulsa, Oklahoma
Current Conditions -  °F | °C
As of 9:53 PM on Thursday 20 Nov 2014 (Local Time) from KTUL Reporting Station
Scattered Clouds Scattered Clouds  
Wind Chill: -1°   Ceiling: Unl
Heat Index:   Visibility: 10mi
Dew Point: -2°   Wind: 6mph
Humidity: 78%   Direction: 330°NNW
Pressure: 30.13"   Gusts: NA
Location:  36.15°N, 95.99°W
Report Text: KTUL 210353Z 33005KT 10SM SCT250 02/M02 A3013 RMK AO2 SLP206 T00171017
Loading
Personal Weather Stations






























Interactive Weather Map New forecast layout! Learn more

10-Day Weather Forecast

Advertisements
Track Severe Weather on mobile